createdAt,value
2019-06-08T00:02:12.472Z,17.70
2019-06-08T00:04:54.241Z,17.70
2019-06-08T00:07:36.031Z,17.80
2019-06-08T00:10:22.054Z,17.90
2019-06-08T00:13:01.238Z,17.80
2019-06-08T00:15:43.375Z,17.70
2019-06-08T00:18:25.428Z,17.80
2019-06-08T00:21:07.886Z,17.80
2019-06-08T00:23:49.960Z,17.80
2019-06-08T00:26:32.004Z,17.70
2019-06-08T00:29:14.173Z,17.60
2019-06-08T00:31:56.594Z,17.70
2019-06-08T00:34:38.893Z,17.70
2019-06-08T00:37:20.978Z,17.70
2019-06-08T00:40:02.927Z,17.70
2019-06-08T00:42:45.058Z,17.60
2019-06-08T00:45:27.415Z,17.70
2019-06-08T00:48:09.270Z,17.60
2019-06-08T00:50:51.016Z,17.40
2019-06-08T00:53:33.080Z,17.40
2019-06-08T00:56:15.034Z,17.40
2019-06-08T00:58:57.355Z,17.40
2019-06-08T01:01:39.351Z,17.40
2019-06-08T01:04:21.085Z,17.50
2019-06-08T01:07:03.547Z,17.50
2019-06-08T01:09:45.758Z,17.50
2019-06-08T01:12:27.275Z,17.30
2019-06-08T01:15:09.464Z,17.40
2019-06-08T01:18:02.103Z,17.30
2019-06-08T01:20:36.208Z,17.20
2019-06-08T01:23:19.492Z,17.20
2019-06-08T01:26:01.171Z,17.20
2019-06-08T01:28:43.126Z,17.30
2019-06-08T01:31:26.595Z,17.30
2019-06-08T01:34:08.271Z,17.20
2019-06-08T01:36:50.279Z,17.20
2019-06-08T01:39:32.490Z,17.30
2019-06-08T01:42:14.505Z,17.40
2019-06-08T01:48:22.502Z,17.50
2019-06-08T01:51:04.746Z,17.50
2019-06-08T01:53:46.544Z,17.40
2019-06-08T01:56:29.167Z,17.30
2019-06-08T01:59:11.219Z,17.40
2019-06-08T02:01:53.157Z,17.40
2019-06-08T02:04:35.365Z,17.40
2019-06-08T02:07:17.221Z,17.50
2019-06-08T02:09:59.494Z,17.50
2019-06-08T02:12:41.731Z,17.40
2019-06-08T02:15:25.085Z,17.40
2019-06-08T02:18:07.296Z,17.40
2019-06-08T02:20:49.169Z,17.40
2019-06-08T02:23:31.138Z,17.40
2019-06-08T02:26:13.192Z,17.40
2019-06-08T02:28:55.184Z,17.30
2019-06-08T02:31:37.747Z,17.30
2019-06-08T02:34:19.464Z,17.30
2019-06-08T02:37:01.775Z,17.40
2019-06-08T02:39:43.604Z,17.30
2019-06-08T02:42:25.117Z,17.30
2019-06-08T02:48:21.269Z,17.30
2019-06-08T02:51:31.208Z,17.30
2019-06-08T02:54:41.165Z,17.30
2019-06-08T03:01:00.041Z,17.30
2019-06-08T03:04:10.068Z,17.20
2019-06-08T03:07:19.812Z,17.20
2019-06-08T03:10:52.001Z,17.10
2019-06-08T03:14:01.732Z,17.10
2019-06-08T03:16:51.006Z,17.10
2019-06-08T03:19:33.385Z,17.10
2019-06-08T03:25:55.169Z,17.20
2019-06-08T03:28:39.449Z,17.10
2019-06-08T03:31:20.475Z,17.00
2019-06-08T03:37:44.211Z,17.00
2019-06-08T03:40:25.575Z,17.20
2019-06-08T03:43:08.088Z,17.10
2019-06-08T03:45:50.245Z,17.20
2019-06-08T03:48:32.238Z,17.20
2019-06-08T03:51:14.581Z,17.30
2019-06-08T03:53:56.800Z,17.30
2019-06-08T03:56:40.131Z,17.30
2019-06-08T03:59:43.215Z,17.20
2019-06-08T04:02:24.735Z,17.30
2019-06-08T04:05:06.889Z,17.20
2019-06-08T04:07:50.464Z,17.30
2019-06-08T04:10:32.370Z,17.10
2019-06-08T04:13:14.539Z,17.20
2019-06-08T04:15:56.457Z,17.30
2019-06-08T04:18:40.170Z,17.30
2019-06-08T04:21:22.558Z,17.40
2019-06-08T04:24:04.809Z,17.40
2019-06-08T04:26:47.282Z,17.30
2019-06-08T04:29:27.757Z,17.30
2019-06-08T04:32:17.050Z,17.40
2019-06-08T04:35:06.578Z,17.40
2019-06-08T04:38:15.341Z,17.40
2019-06-08T04:41:04.783Z,17.40
2019-06-08T04:43:54.153Z,17.40
2019-06-08T04:46:45.043Z,17.30
2019-06-08T04:49:34.807Z,17.30
2019-06-08T04:52:44.947Z,17.30
2019-06-08T04:55:53.925Z,17.40
2019-06-08T04:58:55.449Z,17.40
2019-06-08T05:01:38.736Z,17.40
2019-06-08T05:04:21.136Z,17.50
2019-06-08T05:07:02.778Z,17.50
2019-06-08T05:09:45.173Z,17.50
2019-06-08T05:12:27.481Z,17.60
2019-06-08T05:15:09.418Z,17.60
2019-06-08T05:17:51.481Z,17.60
2019-06-08T05:20:38.793Z,17.50
2019-06-08T05:23:17.262Z,17.50
2019-06-08T05:25:59.028Z,17.30
2019-06-08T05:28:41.389Z,17.30
2019-06-08T05:31:23.312Z,17.20
2019-06-08T05:34:05.198Z,17.40
2019-06-08T05:36:47.521Z,17.50
2019-06-08T05:39:29.817Z,17.50
2019-06-08T05:42:12.185Z,17.40
2019-06-08T05:44:54.261Z,17.60
2019-06-08T05:57:53.529Z,17.70
2019-06-08T06:00:35.792Z,17.70
2019-06-08T06:03:18.095Z,17.70
2019-06-08T06:06:00.285Z,17.70
2019-06-08T06:08:42.504Z,17.70
2019-06-08T06:11:24.402Z,17.60
2019-06-08T06:14:06.466Z,17.60
2019-06-08T06:16:49.131Z,17.80
2019-06-08T06:19:31.370Z,18.10
2019-06-08T06:22:13.469Z,18.60
2019-06-08T06:24:55.565Z,18.80
2019-06-08T06:27:37.430Z,19.20
2019-06-08T06:30:19.332Z,19.20
2019-06-08T06:33:01.662Z,19.60
2019-06-08T06:35:43.816Z,20.40
2019-06-08T06:38:25.972Z,21.90
2019-06-08T06:41:08.187Z,22.30
2019-06-08T06:43:50.404Z,22.90
2019-06-08T06:49:58.180Z,23.20
2019-06-08T06:52:28.461Z,22.90
2019-06-08T06:55:17.828Z,23.20
2019-06-08T07:00:49.434Z,23.90
2019-06-08T07:07:11.370Z,24.10
2019-06-08T07:09:54.748Z,23.50
2019-06-08T07:12:36.997Z,24.00
2019-06-08T07:15:19.013Z,23.80
2019-06-08T07:18:00.565Z,24.00
2019-06-08T07:20:42.646Z,24.50
2019-06-08T07:23:24.987Z,25.10
2019-06-08T07:29:04.498Z,25.80
2019-06-08T07:31:34.867Z,25.80
2019-06-08T07:34:24.167Z,25.40
2019-06-08T07:37:13.303Z,24.30
2019-06-08T07:40:02.669Z,24.40
2019-06-08T07:42:33.020Z,25.10
2019-06-08T07:45:32.918Z,24.90
2019-06-08T07:48:15.266Z,25.20
2019-06-08T07:50:58.393Z,24.90
2019-06-08T07:53:40.236Z,24.40
2019-06-08T08:02:21.237Z,25.80
2019-06-08T08:05:02.856Z,25.30
2019-06-08T08:07:44.838Z,24.80
2019-06-08T08:10:26.601Z,25.20
2019-06-08T08:13:08.117Z,25.60
2019-06-08T08:15:50.784Z,26.10
2019-06-08T08:18:32.850Z,26.50
2019-06-08T08:24:40.775Z,25.70
2019-06-08T08:27:22.874Z,25.60
2019-06-08T08:30:23.798Z,25.70
2019-06-08T08:32:54.966Z,26.00
2019-06-08T08:36:04.614Z,26.20
2019-06-08T08:38:54.035Z,26.50
2019-06-08T08:41:43.804Z,26.50
2019-06-08T08:44:33.251Z,26.40
2019-06-08T08:47:23.033Z,26.30
2019-06-08T08:50:12.769Z,25.60
2019-06-08T08:53:02.504Z,25.60
2019-06-08T08:56:12.697Z,25.30
2019-06-08T08:59:02.886Z,24.90
2019-06-08T09:02:03.773Z,24.50
2019-06-08T09:04:53.634Z,24.00
2019-06-08T09:08:04.087Z,23.90
2019-06-08T09:10:53.667Z,24.00
2019-06-08T09:13:43.152Z,23.80
2019-06-08T09:16:32.561Z,23.90
2019-06-08T09:23:03.051Z,23.50
2019-06-08T09:26:11.912Z,23.70
2019-06-08T09:29:18.896Z,23.90
2019-06-08T09:38:43.514Z,23.40
2019-06-08T09:41:30.762Z,23.30
2019-06-08T09:44:11.649Z,23.10
2019-06-08T09:46:54.041Z,23.20
2019-06-08T09:49:37.743Z,23.30
2019-06-08T09:52:21.653Z,23.40
2019-06-08T09:55:05.803Z,23.30
2019-06-08T09:57:48.562Z,23.40
2019-06-08T10:04:10.507Z,23.60
2019-06-08T10:10:18.138Z,23.60
2019-06-08T10:13:03.554Z,23.70
2019-06-08T10:15:44.937Z,23.40
2019-06-08T10:18:28.502Z,22.70
2019-06-08T10:21:10.352Z,22.70
2019-06-08T10:23:52.342Z,22.80
2019-06-08T10:26:37.511Z,22.90
2019-06-08T10:29:18.700Z,23.20
2019-06-08T10:32:01.570Z,23.40
2019-06-08T10:34:43.766Z,23.10
2019-06-08T10:37:28.202Z,23.30
2019-06-08T10:40:09.583Z,23.40
2019-06-08T10:43:11.504Z,23.20
2019-06-08T10:45:53.343Z,23.40
2019-06-08T10:48:27.491Z,23.50
2019-06-08T10:51:18.169Z,23.70
2019-06-08T10:54:27.716Z,23.60
2019-06-08T11:00:51.894Z,23.40
2019-06-08T11:04:01.954Z,23.40
2019-06-08T11:07:15.446Z,23.60
2019-06-08T11:10:39.442Z,23.80
2019-06-08T11:13:28.713Z,23.90
2019-06-08T11:16:13.512Z,23.90
2019-06-08T11:22:35.721Z,24.10
2019-06-08T11:25:25.086Z,24.00
2019-06-08T11:28:15.271Z,23.90
2019-06-08T11:31:24.810Z,23.90
2019-06-08T11:34:14.151Z,23.80
2019-06-08T11:37:04.778Z,23.80
2019-06-08T11:40:14.104Z,23.90
2019-06-08T11:43:04.366Z,24.00
2019-06-08T11:46:14.223Z,24.00
2019-06-08T11:52:42.588Z,24.20
2019-06-08T11:55:24.664Z,23.60
2019-06-08T11:58:09.793Z,23.60
2019-06-08T12:10:35.068Z,23.80
2019-06-08T12:13:17.843Z,23.70
2019-06-08T12:15:59.831Z,24.00
2019-06-08T12:18:41.611Z,24.10
2019-06-08T12:21:23.294Z,24.10
2019-06-08T12:24:06.155Z,23.90
2019-06-08T12:26:52.747Z,24.00
2019-06-08T12:29:32.821Z,24.10
2019-06-08T12:32:16.276Z,24.20
2019-06-08T12:35:00.069Z,24.20
2019-06-08T12:37:41.961Z,24.40
2019-06-08T12:43:44.074Z,24.00
2019-06-08T12:46:27.786Z,23.80
2019-06-08T12:49:11.362Z,23.60
2019-06-08T12:51:53.544Z,23.80
2019-06-08T12:54:35.401Z,23.90
2019-06-08T12:57:19.982Z,24.00
2019-06-08T13:00:01.440Z,24.00
2019-06-08T13:09:29.723Z,24.30
2019-06-08T13:16:12.522Z,24.40
2019-06-08T13:19:22.185Z,24.30
2019-06-08T13:22:31.566Z,24.40
2019-06-08T13:25:43.973Z,24.40
2019-06-08T13:28:52.045Z,24.20
2019-06-08T13:31:41.399Z,24.30
2019-06-08T13:34:30.764Z,24.10
2019-06-08T13:37:14.386Z,24.10
2019-06-08T13:39:59.246Z,23.90
2019-06-08T13:42:40.684Z,23.80
2019-06-08T13:45:23.538Z,23.70
2019-06-08T13:51:21.479Z,24.00
2019-06-08T13:54:31.286Z,24.20
2019-06-08T13:57:40.715Z,24.10
2019-06-08T14:04:04.615Z,24.40
2019-06-08T14:06:54.079Z,24.10
2019-06-08T14:09:43.526Z,24.10
2019-06-08T14:12:32.917Z,24.20
2019-06-08T14:15:23.391Z,24.30
2019-06-08T14:18:34.322Z,24.40
2019-06-08T14:21:38.565Z,24.10
2019-06-08T14:24:25.643Z,23.80
2019-06-08T14:27:05.196Z,23.70
2019-06-08T14:29:48.507Z,23.80
2019-06-08T14:32:30.527Z,23.90
2019-06-08T14:35:02.972Z,23.90
2019-06-08T14:38:11.366Z,23.90
2019-06-08T14:41:21.032Z,23.90
2019-06-08T14:44:32.139Z,23.80
2019-06-08T14:47:39.660Z,23.70
2019-06-08T14:50:30.689Z,23.70
2019-06-08T14:53:39.409Z,23.70
2019-06-08T14:56:31.458Z,23.60
2019-06-08T14:59:31.855Z,23.10
2019-06-08T15:02:13.947Z,23.20
2019-06-08T15:04:55.959Z,23.30
2019-06-08T15:11:03.228Z,23.60
2019-06-08T15:17:05.685Z,23.70
2019-06-08T15:19:47.646Z,23.70
2019-06-08T15:22:30.607Z,23.60
2019-06-08T15:25:13.951Z,23.50
2019-06-08T15:31:13.028Z,23.50
2019-06-08T15:34:02.507Z,23.70
2019-06-08T15:36:46.337Z,23.70
2019-06-08T15:39:31.776Z,23.50
2019-06-08T15:42:12.261Z,23.40
2019-06-08T15:44:53.877Z,23.50
2019-06-08T15:47:40.541Z,23.50
2019-06-08T15:50:19.948Z,23.20
2019-06-08T15:53:02.453Z,23.20
2019-06-08T15:55:44.710Z,23.20
2019-06-08T15:58:29.525Z,23.30
2019-06-08T16:01:10.695Z,23.50
2019-06-08T16:07:34.224Z,23.30
2019-06-08T16:10:15.718Z,23.30
2019-06-08T16:12:58.001Z,23.10
2019-06-08T16:15:39.657Z,23.00
2019-06-08T16:18:21.983Z,22.90
2019-06-08T16:21:03.707Z,23.00
2019-06-08T16:23:45.462Z,23.20
2019-06-08T16:26:27.784Z,23.20
2019-06-08T16:29:09.456Z,23.10
2019-06-08T16:31:51.140Z,23.20
2019-06-08T16:34:33.595Z,23.20
2019-06-08T16:37:15.538Z,23.20
2019-06-08T16:39:57.665Z,23.10
2019-06-08T16:42:39.876Z,23.00
2019-06-08T16:45:22.061Z,22.90
2019-06-08T16:48:04.221Z,22.90
2019-06-08T16:50:46.145Z,22.90
2019-06-08T16:53:29.419Z,23.00
2019-06-08T16:56:11.655Z,22.90
2019-06-08T16:58:53.329Z,22.80
2019-06-08T17:01:34.959Z,22.80
2019-06-08T17:04:16.501Z,22.80
2019-06-08T17:06:58.184Z,22.80
2019-06-08T17:09:40.513Z,22.70
2019-06-08T17:12:22.464Z,22.80
2019-06-08T17:15:04.787Z,22.80
2019-06-08T17:17:47.324Z,22.70
2019-06-08T17:20:30.092Z,22.60
2019-06-08T17:23:12.865Z,22.50
2019-06-08T17:25:54.747Z,22.50
2019-06-08T17:28:25.067Z,22.50
2019-06-08T17:31:14.455Z,22.50
2019-06-08T17:37:40.109Z,22.50
2019-06-08T17:41:07.138Z,22.50
2019-06-08T17:43:56.445Z,22.40
2019-06-08T17:46:26.769Z,22.40
2019-06-08T17:49:16.125Z,22.40
2019-06-08T17:51:46.406Z,22.40
2019-06-08T17:54:27.994Z,22.40
2019-06-08T17:57:10.266Z,22.40
2019-06-08T17:59:52.018Z,22.40
2019-06-08T18:02:33.989Z,22.40
2019-06-08T18:05:17.962Z,22.40
2019-06-08T18:07:59.933Z,22.30
2019-06-08T18:13:31.999Z,22.30
2019-06-08T18:16:42.217Z,22.20
2019-06-08T18:23:07.730Z,22.00
2019-06-08T18:26:17.226Z,22.00
2019-06-08T18:29:27.693Z,22.00
2019-06-08T18:32:39.153Z,21.90
2019-06-08T18:35:49.294Z,21.80
2019-06-08T18:38:58.240Z,21.80
2019-06-08T18:42:08.470Z,21.80
2019-06-08T18:44:58.353Z,21.70
2019-06-08T18:51:17.471Z,21.50
2019-06-08T18:54:19.536Z,21.50
2019-06-08T18:57:01.877Z,21.40
2019-06-08T18:59:47.042Z,21.40
2019-06-08T19:02:28.624Z,21.30
2019-06-08T19:05:10.526Z,21.20
2019-06-08T19:07:52.627Z,21.20
2019-06-08T19:10:34.400Z,21.20
2019-06-08T19:13:17.989Z,21.20
2019-06-08T19:16:00.315Z,21.10
2019-06-08T19:18:46.272Z,21.00
2019-06-08T19:21:28.188Z,21.00
2019-06-08T19:24:10.547Z,21.00
2019-06-08T19:26:52.186Z,21.00
2019-06-08T19:29:34.078Z,21.00
2019-06-08T19:32:17.070Z,21.00
2019-06-08T19:34:59.247Z,20.90
2019-06-08T19:37:41.923Z,20.90
2019-06-08T19:40:27.022Z,20.90
2019-06-08T19:43:09.082Z,20.90
2019-06-08T19:45:52.119Z,20.90
2019-06-08T19:48:34.319Z,20.80
2019-06-08T19:51:17.131Z,20.70
2019-06-08T19:53:59.053Z,20.60
2019-06-08T19:56:41.882Z,20.70
2019-06-08T19:59:23.926Z,20.70
2019-06-08T20:02:08.480Z,20.60
2019-06-08T20:04:49.553Z,20.50
2019-06-08T20:07:20.182Z,20.50
2019-06-08T20:10:09.808Z,20.60
2019-06-08T20:12:59.197Z,20.30
2019-06-08T20:15:55.102Z,20.40
2019-06-08T20:18:51.688Z,20.40
2019-06-08T20:22:01.392Z,20.40
2019-06-08T20:24:44.086Z,20.50
2019-06-08T20:27:14.489Z,20.40
2019-06-08T20:30:08.403Z,20.50
2019-06-08T20:33:14.418Z,20.50
2019-06-08T20:36:03.818Z,20.50
2019-06-08T20:38:53.183Z,20.50
2019-06-08T20:44:57.307Z,20.30
2019-06-08T20:48:05.868Z,20.30
2019-06-08T20:54:03.791Z,20.30
2019-06-08T20:56:53.539Z,20.20
2019-06-08T20:59:43.592Z,20.20
2019-06-08T21:05:43.685Z,20.00
2019-06-08T21:08:37.222Z,20.00
2019-06-08T21:11:28.069Z,19.90
2019-06-08T21:14:17.489Z,19.90
2019-06-08T21:16:50.467Z,19.80
2019-06-08T21:19:58.429Z,19.90
2019-06-08T21:22:51.756Z,19.80
2019-06-08T21:26:00.104Z,19.90
2019-06-08T21:29:08.818Z,19.80
2019-06-08T21:32:01.788Z,19.90
2019-06-08T21:35:08.842Z,19.80
2019-06-08T21:38:00.996Z,19.80
2019-06-08T21:41:08.817Z,19.80
2019-06-08T21:43:39.174Z,19.70
2019-06-08T21:46:22.283Z,19.50
2019-06-08T21:48:53.481Z,19.40
2019-06-08T21:51:44.226Z,19.50
2019-06-08T21:54:33.712Z,19.50
2019-06-08T21:57:23.128Z,19.30
2019-06-08T22:00:34.804Z,19.00
2019-06-08T22:03:47.044Z,19.10
2019-06-08T22:06:58.580Z,18.70
2019-06-08T22:10:07.437Z,18.70
2019-06-08T22:13:37.413Z,18.80
2019-06-08T22:16:47.589Z,18.50
2019-06-08T22:19:59.539Z,18.20
2019-06-08T22:23:08.161Z,17.80
2019-06-08T22:25:59.219Z,17.90
2019-06-08T22:29:08.095Z,17.80
2019-06-08T22:31:52.184Z,18.00
2019-06-08T22:34:34.096Z,18.10
2019-06-08T22:37:16.567Z,18.40
2019-06-08T22:40:00.904Z,18.60
2019-06-08T22:42:42.565Z,18.50
2019-06-08T22:45:24.731Z,18.50
2019-06-08T22:48:08.205Z,18.50
2019-06-08T22:50:50.488Z,18.50
2019-06-08T22:53:32.461Z,18.60
2019-06-08T22:56:14.519Z,18.30
2019-06-08T22:59:00.550Z,18.20
2019-06-08T23:01:40.777Z,18.20
2019-06-08T23:04:22.408Z,18.30
2019-06-08T23:07:09.521Z,18.20
2019-06-08T23:09:38.422Z,18.10
2019-06-08T23:12:28.720Z,18.10
2019-06-08T23:15:38.292Z,18.20
2019-06-08T23:18:27.988Z,18.00
2019-06-08T23:21:18.042Z,18.20
2019-06-08T23:24:27.928Z,18.10
2019-06-08T23:27:17.626Z,18.00
2019-06-08T23:30:20.363Z,17.80
2019-06-08T23:33:04.300Z,17.70
2019-06-08T23:36:24.511Z,17.70
2019-06-08T23:38:30.165Z,17.80
2019-06-08T23:41:11.712Z,17.60
2019-06-08T23:43:52.465Z,17.60
2019-06-08T23:46:41.911Z,17.60
2019-06-08T23:49:31.294Z,17.60
2019-06-08T23:52:20.903Z,17.60
2019-06-08T23:58:01.410Z,17.40
